sensor_id;sensor_type;location;lat;lon;timestamp;P1;durP1;ratioP1;P2;durP2;ratioP2
62102;SDS011;48077;48.104;11.702;2022-09-06T00:02:11;6.07;;;4.05;;
62102;SDS011;48077;48.104;11.702;2022-09-06T00:04:35;4.72;;;3.70;;
62102;SDS011;48077;48.104;11.702;2022-09-06T00:06:58;5.45;;;3.70;;
62102;SDS011;48077;48.104;11.702;2022-09-06T00:09:21;5.38;;;3.75;;
62102;SDS011;48077;48.104;11.702;2022-09-06T00:11:45;5.05;;;3.72;;
62102;SDS011;48077;48.104;11.702;2022-09-06T00:14:08;5.82;;;4.45;;
62102;SDS011;48077;48.104;11.702;2022-09-06T00:16:31;6.00;;;3.40;;
62102;SDS011;48077;48.104;11.702;2022-09-06T00:18:55;6.10;;;3.70;;
62102;SDS011;48077;48.104;11.702;2022-09-06T00:21:28;5.35;;;3.90;;
62102;SDS011;48077;48.104;11.702;2022-09-06T00:23:53;6.13;;;4.18;;
62102;SDS011;48077;48.104;11.702;2022-09-06T00:26:16;7.80;;;4.60;;
62102;SDS011;48077;48.104;11.702;2022-09-06T00:28:40;11.27;;;5.00;;
62102;SDS011;48077;48.104;11.702;2022-09-06T00:31:08;7.20;;;4.10;;
62102;SDS011;48077;48.104;11.702;2022-09-06T00:33:32;8.52;;;4.80;;
62102;SDS011;48077;48.104;11.702;2022-09-06T00:35:59;6.80;;;4.50;;
62102;SDS011;48077;48.104;11.702;2022-09-06T00:38:22;5.38;;;4.05;;
62102;SDS011;48077;48.104;11.702;2022-09-06T00:40:45;5.15;;;4.15;;
62102;SDS011;48077;48.104;11.702;2022-09-06T00:43:09;7.43;;;5.10;;
62102;SDS011;48077;48.104;11.702;2022-09-06T00:45:32;7.05;;;4.47;;
62102;SDS011;48077;48.104;11.702;2022-09-06T00:47:56;6.90;;;4.40;;
62102;SDS011;48077;48.104;11.702;2022-09-06T00:50:21;5.72;;;3.95;;
62102;SDS011;48077;48.104;11.702;2022-09-06T00:52:45;6.28;;;4.68;;
62102;SDS011;48077;48.104;11.702;2022-09-06T00:55:12;6.85;;;4.40;;
62102;SDS011;48077;48.104;11.702;2022-09-06T00:57:36;6.38;;;4.35;;
62102;SDS011;48077;48.104;11.702;2022-09-06T00:59:59;8.02;;;4.32;;
62102;SDS011;48077;48.104;11.702;2022-09-06T01:02:24;4.85;;;3.97;;
62102;SDS011;48077;48.104;11.702;2022-09-06T01:04:48;6.63;;;4.30;;
62102;SDS011;48077;48.104;11.702;2022-09-06T01:07:57;8.73;;;4.55;;
62102;SDS011;48077;48.104;11.702;2022-09-06T01:21:33;7.68;;;4.75;;
62102;SDS011;48077;48.104;11.702;2022-09-06T01:30:10;9.07;;;4.82;;
62102;SDS011;48077;48.104;11.702;2022-09-06T01:32:46;7.38;;;4.90;;
62102;SDS011;48077;48.104;11.702;2022-09-06T01:35:17;6.63;;;4.90;;
62102;SDS011;48077;48.104;11.702;2022-09-06T01:37:49;5.75;;;4.38;;
62102;SDS011;48077;48.104;11.702;2022-09-06T01:40:12;5.88;;;4.30;;
62102;SDS011;48077;48.104;11.702;2022-09-06T01:42:36;6.55;;;4.35;;
62102;SDS011;48077;48.104;11.702;2022-09-06T01:45:06;5.45;;;3.90;;
62102;SDS011;48077;48.104;11.702;2022-09-06T01:47:37;6.45;;;4.15;;
62102;SDS011;48077;48.104;11.702;2022-09-06T01:52:41;6.60;;;4.25;;
62102;SDS011;48077;48.104;11.702;2022-09-06T02:01:07;5.63;;;4.18;;
62102;SDS011;48077;48.104;11.702;2022-09-06T02:06:21;6.85;;;4.20;;
62102;SDS011;48077;48.104;11.702;2022-09-06T02:08:50;6.40;;;3.92;;
62102;SDS011;48077;48.104;11.702;2022-09-06T02:11:17;7.70;;;4.47;;
62102;SDS011;48077;48.104;11.702;2022-09-06T02:13:45;5.75;;;4.30;;
62102;SDS011;48077;48.104;11.702;2022-09-06T02:16:12;6.03;;;4.20;;
62102;SDS011;48077;48.104;11.702;2022-09-06T02:18:43;8.70;;;5.13;;
62102;SDS011;48077;48.104;11.702;2022-09-06T02:21:14;6.22;;;4.00;;
62102;SDS011;48077;48.104;11.702;2022-09-06T02:23:40;5.85;;;4.28;;
62102;SDS011;48077;48.104;11.702;2022-09-06T02:26:12;5.68;;;3.95;;
62102;SDS011;48077;48.104;11.702;2022-09-06T02:28:40;5.88;;;4.40;;
62102;SDS011;48077;48.104;11.702;2022-09-06T02:31:05;6.97;;;4.50;;
62102;SDS011;48077;48.104;11.702;2022-09-06T02:33:40;7.47;;;4.45;;
62102;SDS011;48077;48.104;11.702;2022-09-06T02:36:08;6.68;;;4.18;;
62102;SDS011;48077;48.104;11.702;2022-09-06T02:38:32;6.20;;;4.40;;
62102;SDS011;48077;48.104;11.702;2022-09-06T02:40:58;7.25;;;4.40;;
62102;SDS011;48077;48.104;11.702;2022-09-06T02:43:22;8.70;;;4.35;;
62102;SDS011;48077;48.104;11.702;2022-09-06T02:45:45;6.32;;;4.45;;
62102;SDS011;48077;48.104;11.702;2022-09-06T02:48:09;6.80;;;4.43;;
62102;SDS011;48077;48.104;11.702;2022-09-06T02:50:32;5.18;;;3.92;;
62102;SDS011;48077;48.104;11.702;2022-09-06T02:53:06;7.50;;;4.57;;
62102;SDS011;48077;48.104;11.702;2022-09-06T02:55:33;7.90;;;4.75;;
62102;SDS011;48077;48.104;11.702;2022-09-06T02:57:57;7.88;;;4.00;;
62102;SDS011;48077;48.104;11.702;2022-09-06T03:00:20;9.30;;;4.70;;
62102;SDS011;48077;48.104;11.702;2022-09-06T03:02:44;9.05;;;4.55;;
62102;SDS011;48077;48.104;11.702;2022-09-06T03:05:07;6.15;;;4.47;;
62102;SDS011;48077;48.104;11.702;2022-09-06T03:07:31;5.68;;;4.40;;
62102;SDS011;48077;48.104;11.702;2022-09-06T03:09:54;5.97;;;4.00;;
62102;SDS011;48077;48.104;11.702;2022-09-06T03:12:18;7.20;;;3.95;;
62102;SDS011;48077;48.104;11.702;2022-09-06T03:14:42;6.63;;;4.13;;
62102;SDS011;48077;48.104;11.702;2022-09-06T03:17:05;7.28;;;4.65;;
62102;SDS011;48077;48.104;11.702;2022-09-06T03:19:29;5.60;;;4.45;;
62102;SDS011;48077;48.104;11.702;2022-09-06T03:21:52;6.70;;;4.72;;
62102;SDS011;48077;48.104;11.702;2022-09-06T03:24:15;6.95;;;4.50;;
62102;SDS011;48077;48.104;11.702;2022-09-06T03:26:39;5.93;;;4.18;;
62102;SDS011;48077;48.104;11.702;2022-09-06T03:29:02;7.75;;;4.05;;
62102;SDS011;48077;48.104;11.702;2022-09-06T03:31:25;7.53;;;4.20;;
62102;SDS011;48077;48.104;11.702;2022-09-06T03:33:49;6.68;;;4.07;;
62102;SDS011;48077;48.104;11.702;2022-09-06T03:36:12;5.38;;;3.90;;
62102;SDS011;48077;48.104;11.702;2022-09-06T03:38:35;6.60;;;4.25;;
62102;SDS011;48077;48.104;11.702;2022-09-06T03:40:59;4.75;;;4.03;;
62102;SDS011;48077;48.104;11.702;2022-09-06T03:43:23;6.82;;;4.22;;
62102;SDS011;48077;48.104;11.702;2022-09-06T03:45:48;10.80;;;4.53;;
62102;SDS011;48077;48.104;11.702;2022-09-06T03:48:13;6.50;;;4.22;;
62102;SDS011;48077;48.104;11.702;2022-09-06T03:50:37;6.07;;;4.43;;
62102;SDS011;48077;48.104;11.702;2022-09-06T03:53:04;5.95;;;4.30;;
62102;SDS011;48077;48.104;11.702;2022-09-06T03:55:28;6.43;;;4.30;;
62102;SDS011;48077;48.104;11.702;2022-09-06T03:57:51;6.50;;;4.30;;
62102;SDS011;48077;48.104;11.702;2022-09-06T04:00:14;5.60;;;4.05;;
62102;SDS011;48077;48.104;11.702;2022-09-06T04:02:38;6.85;;;4.35;;
62102;SDS011;48077;48.104;11.702;2022-09-06T04:05:01;6.78;;;4.35;;
62102;SDS011;48077;48.104;11.702;2022-09-06T04:07:25;5.00;;;3.70;;
62102;SDS011;48077;48.104;11.702;2022-09-06T04:09:48;5.47;;;3.65;;
62102;SDS011;48077;48.104;11.702;2022-09-06T04:12:12;8.25;;;4.43;;
62102;SDS011;48077;48.104;11.702;2022-09-06T04:14:35;4.45;;;3.75;;
62102;SDS011;48077;48.104;11.702;2022-09-06T04:16:58;5.97;;;4.20;;
62102;SDS011;48077;48.104;11.702;2022-09-06T04:19:22;6.45;;;3.95;;
62102;SDS011;48077;48.104;11.702;2022-09-06T04:21:45;6.72;;;3.92;;
62102;SDS011;48077;48.104;11.702;2022-09-06T04:24:09;6.18;;;3.92;;
62102;SDS011;48077;48.104;11.702;2022-09-06T04:26:32;6.30;;;4.40;;
62102;SDS011;48077;48.104;11.702;2022-09-06T04:28:56;5.97;;;4.20;;
62102;SDS011;48077;48.104;11.702;2022-09-06T04:31:19;7.25;;;4.40;;
62102;SDS011;48077;48.104;11.702;2022-09-06T04:33:42;6.78;;;4.15;;
62102;SDS011;48077;48.104;11.702;2022-09-06T04:36:08;9.55;;;5.28;;
62102;SDS011;48077;48.104;11.702;2022-09-06T04:38:34;11.23;;;6.18;;
62102;SDS011;48077;48.104;11.702;2022-09-06T04:41:00;7.43;;;4.05;;
62102;SDS011;48077;48.104;11.702;2022-09-06T04:43:23;7.15;;;4.20;;
62102;SDS011;48077;48.104;11.702;2022-09-06T04:45:46;5.63;;;4.25;;
62102;SDS011;48077;48.104;11.702;2022-09-06T04:48:10;8.10;;;4.43;;
62102;SDS011;48077;48.104;11.702;2022-09-06T04:50:33;7.72;;;4.93;;
62102;SDS011;48077;48.104;11.702;2022-09-06T04:52:57;6.25;;;4.25;;
62102;SDS011;48077;48.104;11.702;2022-09-06T04:55:20;5.25;;;3.88;;
62102;SDS011;48077;48.104;11.702;2022-09-06T04:57:44;5.82;;;4.40;;
62102;SDS011;48077;48.104;11.702;2022-09-06T05:00:07;7.18;;;4.03;;
62102;SDS011;48077;48.104;11.702;2022-09-06T05:02:31;5.43;;;4.03;;
62102;SDS011;48077;48.104;11.702;2022-09-06T05:04:55;8.27;;;5.05;;
62102;SDS011;48077;48.104;11.702;2022-09-06T05:07:19;6.95;;;4.50;;
62102;SDS011;48077;48.104;11.702;2022-09-06T05:09:42;8.00;;;5.25;;
62102;SDS011;48077;48.104;11.702;2022-09-06T05:12:05;9.32;;;4.65;;
62102;SDS011;48077;48.104;11.702;2022-09-06T05:14:29;7.65;;;4.20;;
62102;SDS011;48077;48.104;11.702;2022-09-06T05:16:53;7.43;;;4.35;;
62102;SDS011;48077;48.104;11.702;2022-09-06T05:19:16;12.13;;;4.70;;
62102;SDS011;48077;48.104;11.702;2022-09-06T05:21:41;9.25;;;4.75;;
62102;SDS011;48077;48.104;11.702;2022-09-06T05:24:04;5.93;;;4.22;;
62102;SDS011;48077;48.104;11.702;2022-09-06T05:26:27;7.43;;;4.22;;
62102;SDS011;48077;48.104;11.702;2022-09-06T05:28:51;7.07;;;4.10;;
62102;SDS011;48077;48.104;11.702;2022-09-06T05:31:30;7.72;;;3.97;;
62102;SDS011;48077;48.104;11.702;2022-09-06T05:33:55;5.60;;;3.72;;
62102;SDS011;48077;48.104;11.702;2022-09-06T05:36:19;13.65;;;6.57;;
62102;SDS011;48077;48.104;11.702;2022-09-06T05:38:45;5.28;;;3.78;;
62102;SDS011;48077;48.104;11.702;2022-09-06T05:41:08;6.95;;;4.63;;
62102;SDS011;48077;48.104;11.702;2022-09-06T05:43:31;5.88;;;3.90;;
62102;SDS011;48077;48.104;11.702;2022-09-06T05:45:55;5.80;;;4.15;;
62102;SDS011;48077;48.104;11.702;2022-09-06T05:48:18;7.88;;;4.45;;
62102;SDS011;48077;48.104;11.702;2022-09-06T05:50:41;5.70;;;3.95;;
62102;SDS011;48077;48.104;11.702;2022-09-06T05:53:05;7.57;;;4.43;;
62102;SDS011;48077;48.104;11.702;2022-09-06T05:55:28;6.18;;;4.03;;
62102;SDS011;48077;48.104;11.702;2022-09-06T05:57:51;6.50;;;4.10;;
62102;SDS011;48077;48.104;11.702;2022-09-06T06:00:15;8.40;;;4.43;;
62102;SDS011;48077;48.104;11.702;2022-09-06T06:02:38;6.20;;;4.63;;
62102;SDS011;48077;48.104;11.702;2022-09-06T06:05:02;7.70;;;4.47;;
62102;SDS011;48077;48.104;11.702;2022-09-06T06:07:26;4.57;;;3.85;;
62102;SDS011;48077;48.104;11.702;2022-09-06T06:09:49;7.00;;;4.88;;
62102;SDS011;48077;48.104;11.702;2022-09-06T06:12:13;8.18;;;4.60;;
62102;SDS011;48077;48.104;11.702;2022-09-06T06:14:36;9.15;;;5.05;;
62102;SDS011;48077;48.104;11.702;2022-09-06T06:17:00;7.53;;;4.75;;
62102;SDS011;48077;48.104;11.702;2022-09-06T06:19:24;7.60;;;4.82;;
62102;SDS011;48077;48.104;11.702;2022-09-06T06:21:48;6.97;;;4.22;;
62102;SDS011;48077;48.104;11.702;2022-09-06T06:24:12;6.80;;;4.50;;
62102;SDS011;48077;48.104;11.702;2022-09-06T06:26:35;6.72;;;4.57;;
62102;SDS011;48077;48.104;11.702;2022-09-06T06:28:59;9.80;;;5.22;;
62102;SDS011;48077;48.104;11.702;2022-09-06T06:31:28;6.80;;;4.40;;
62102;SDS011;48077;48.104;11.702;2022-09-06T06:33:52;9.10;;;4.75;;
62102;SDS011;48077;48.104;11.702;2022-09-06T06:38:39;5.75;;;4.13;;
62102;SDS011;48077;48.104;11.702;2022-09-06T06:41:05;10.48;;;5.10;;
62102;SDS011;48077;48.104;11.702;2022-09-06T06:43:30;7.07;;;4.25;;
62102;SDS011;48077;48.104;11.702;2022-09-06T06:45:59;7.80;;;4.32;;
62102;SDS011;48077;48.104;11.702;2022-09-06T06:48:23;6.15;;;3.92;;
62102;SDS011;48077;48.104;11.702;2022-09-06T06:50:46;6.30;;;3.90;;
62102;SDS011;48077;48.104;11.702;2022-09-06T06:53:09;7.13;;;4.20;;
62102;SDS011;48077;48.104;11.702;2022-09-06T06:55:33;5.43;;;3.72;;
62102;SDS011;48077;48.104;11.702;2022-09-06T06:57:58;9.10;;;4.22;;
62102;SDS011;48077;48.104;11.702;2022-09-06T07:00:21;6.45;;;3.88;;
62102;SDS011;48077;48.104;11.702;2022-09-06T07:02:45;6.30;;;4.28;;
62102;SDS011;48077;48.104;11.702;2022-09-06T07:05:08;7.40;;;4.20;;
62102;SDS011;48077;48.104;11.702;2022-09-06T07:07:32;6.47;;;4.30;;
62102;SDS011;48077;48.104;11.702;2022-09-06T07:09:55;7.45;;;4.35;;
62102;SDS011;48077;48.104;11.702;2022-09-06T07:12:19;11.40;;;4.72;;
62102;SDS011;48077;48.104;11.702;2022-09-06T07:14:42;6.68;;;4.28;;
62102;SDS011;48077;48.104;11.702;2022-09-06T07:17:08;6.30;;;4.18;;
62102;SDS011;48077;48.104;11.702;2022-09-06T07:19:32;9.70;;;5.20;;
62102;SDS011;48077;48.104;11.702;2022-09-06T07:21:55;6.97;;;4.10;;
62102;SDS011;48077;48.104;11.702;2022-09-06T07:24:20;7.63;;;4.43;;
62102;SDS011;48077;48.104;11.702;2022-09-06T07:26:43;8.13;;;4.55;;
62102;SDS011;48077;48.104;11.702;2022-09-06T07:29:07;10.30;;;5.30;;
62102;SDS011;48077;48.104;11.702;2022-09-06T07:31:30;8.13;;;4.70;;
62102;SDS011;48077;48.104;11.702;2022-09-06T07:33:54;7.40;;;4.10;;
62102;SDS011;48077;48.104;11.702;2022-09-06T07:36:17;9.38;;;4.13;;
62102;SDS011;48077;48.104;11.702;2022-09-06T07:38:41;7.93;;;3.67;;
62102;SDS011;48077;48.104;11.702;2022-09-06T07:41:09;8.60;;;4.20;;
62102;SDS011;48077;48.104;11.702;2022-09-06T07:43:33;8.23;;;4.18;;
62102;SDS011;48077;48.104;11.702;2022-09-06T07:46:16;8.52;;;3.47;;
62102;SDS011;48077;48.104;11.702;2022-09-06T07:48:40;7.85;;;3.70;;
62102;SDS011;48077;48.104;11.702;2022-09-06T07:51:08;7.70;;;3.70;;
62102;SDS011;48077;48.104;11.702;2022-09-06T07:53:34;5.95;;;3.40;;
62102;SDS011;48077;48.104;11.702;2022-09-06T07:55:58;7.45;;;3.22;;
62102;SDS011;48077;48.104;11.702;2022-09-06T07:58:22;9.80;;;3.60;;
62102;SDS011;48077;48.104;11.702;2022-09-06T08:00:46;7.50;;;3.60;;
62102;SDS011;48077;48.104;11.702;2022-09-06T08:03:09;6.20;;;3.25;;
62102;SDS011;48077;48.104;11.702;2022-09-06T08:05:33;5.63;;;3.08;;
62102;SDS011;48077;48.104;11.702;2022-09-06T08:07:56;4.00;;;2.50;;
62102;SDS011;48077;48.104;11.702;2022-09-06T08:10:22;7.93;;;3.40;;
62102;SDS011;48077;48.104;11.702;2022-09-06T08:12:46;8.35;;;3.40;;
62102;SDS011;48077;48.104;11.702;2022-09-06T08:15:09;8.07;;;3.72;;
62102;SDS011;48077;48.104;11.702;2022-09-06T08:17:33;5.55;;;2.97;;
62102;SDS011;48077;48.104;11.702;2022-09-06T08:19:57;4.65;;;3.03;;
62102;SDS011;48077;48.104;11.702;2022-09-06T08:22:21;6.78;;;3.35;;
62102;SDS011;48077;48.104;11.702;2022-09-06T08:24:44;4.60;;;2.55;;
62102;SDS011;48077;48.104;11.702;2022-09-06T08:27:07;6.05;;;3.15;;
62102;SDS011;48077;48.104;11.702;2022-09-06T08:29:31;4.22;;;2.65;;
62102;SDS011;48077;48.104;11.702;2022-09-06T08:31:54;4.95;;;2.63;;
62102;SDS011;48077;48.104;11.702;2022-09-06T08:34:17;6.43;;;2.75;;
62102;SDS011;48077;48.104;11.702;2022-09-06T08:36:41;3.85;;;2.30;;
62102;SDS011;48077;48.104;11.702;2022-09-06T08:39:06;8.27;;;2.30;;
62102;SDS011;48077;48.104;11.702;2022-09-06T08:44:39;3.65;;;2.53;;
62102;SDS011;48077;48.104;11.702;2022-09-06T08:47:05;3.90;;;2.45;;
62102;SDS011;48077;48.104;11.702;2022-09-06T08:49:37;6.32;;;2.33;;
62102;SDS011;48077;48.104;11.702;2022-09-06T08:55:05;6.88;;;2.70;;
62102;SDS011;48077;48.104;11.702;2022-09-06T09:00:52;4.13;;;2.20;;
62102;SDS011;48077;48.104;11.702;2022-09-06T09:03:21;4.30;;;2.10;;
62102;SDS011;48077;48.104;11.702;2022-09-06T09:05:50;6.38;;;2.90;;
62102;SDS011;48077;48.104;11.702;2022-09-06T09:08:23;5.93;;;2.40;;
62102;SDS011;48077;48.104;11.702;2022-09-06T09:11:13;5.10;;;2.35;;
62102;SDS011;48077;48.104;11.702;2022-09-06T09:16:09;4.82;;;2.03;;
62102;SDS011;48077;48.104;11.702;2022-09-06T09:18:38;3.72;;;2.20;;
62102;SDS011;48077;48.104;11.702;2022-09-06T09:21:04;8.35;;;3.30;;
62102;SDS011;48077;48.104;11.702;2022-09-06T09:23:28;4.38;;;1.95;;
62102;SDS011;48077;48.104;11.702;2022-09-06T09:25:53;3.55;;;2.20;;
62102;SDS011;48077;48.104;11.702;2022-09-06T09:28:21;5.43;;;2.08;;
62102;SDS011;48077;48.104;11.702;2022-09-06T09:30:47;5.05;;;2.30;;
62102;SDS011;48077;48.104;11.702;2022-09-06T09:35:55;5.75;;;2.40;;
62102;SDS011;48077;48.104;11.702;2022-09-06T09:38:31;4.03;;;1.90;;
62102;SDS011;48077;48.104;11.702;2022-09-06T09:41:03;4.75;;;2.58;;
62102;SDS011;48077;48.104;11.702;2022-09-06T09:43:29;5.07;;;1.77;;
62102;SDS011;48077;48.104;11.702;2022-09-06T09:46:08;4.70;;;2.20;;
62102;SDS011;48077;48.104;11.702;2022-09-06T09:48:31;3.85;;;2.58;;
62102;SDS011;48077;48.104;11.702;2022-09-06T09:50:55;6.45;;;2.50;;
62102;SDS011;48077;48.104;11.702;2022-09-06T09:53:19;5.45;;;2.63;;
62102;SDS011;48077;48.104;11.702;2022-09-06T09:55:44;5.88;;;2.95;;
62102;SDS011;48077;48.104;11.702;2022-09-06T09:58:15;4.30;;;2.35;;
62102;SDS011;48077;48.104;11.702;2022-09-06T10:00:43;5.20;;;2.63;;
62102;SDS011;48077;48.104;11.702;2022-09-06T10:03:12;4.82;;;2.47;;
62102;SDS011;48077;48.104;11.702;2022-09-06T10:05:38;6.93;;;3.08;;
62102;SDS011;48077;48.104;11.702;2022-09-06T10:08:03;4.57;;;2.70;;
62102;SDS011;48077;48.104;11.702;2022-09-06T10:10:45;4.05;;;2.72;;
62102;SDS011;48077;48.104;11.702;2022-09-06T10:15:43;6.00;;;2.50;;
62102;SDS011;48077;48.104;11.702;2022-09-06T10:18:12;4.88;;;2.85;;
62102;SDS011;48077;48.104;11.702;2022-09-06T10:20:42;4.13;;;2.28;;
62102;SDS011;48077;48.104;11.702;2022-09-06T10:23:15;4.72;;;2.90;;
62102;SDS011;48077;48.104;11.702;2022-09-06T10:25:53;4.47;;;2.55;;
62102;SDS011;48077;48.104;11.702;2022-09-06T10:28:26;4.38;;;2.60;;
62102;SDS011;48077;48.104;11.702;2022-09-06T10:35:59;4.40;;;2.72;;
62102;SDS011;48077;48.104;11.702;2022-09-06T10:43:49;5.18;;;2.60;;
62102;SDS011;48077;48.104;11.702;2022-09-06T10:46:24;7.28;;;3.42;;
62102;SDS011;48077;48.104;11.702;2022-09-06T10:48:48;4.45;;;2.33;;
62102;SDS011;48077;48.104;11.702;2022-09-06T10:51:14;5.18;;;2.55;;
62102;SDS011;48077;48.104;11.702;2022-09-06T10:53:50;4.13;;;2.33;;
62102;SDS011;48077;48.104;11.702;2022-09-06T10:56:31;5.55;;;2.70;;
62102;SDS011;48077;48.104;11.702;2022-09-06T10:59:29;4.10;;;2.10;;
62102;SDS011;48077;48.104;11.702;2022-09-06T11:04:27;3.33;;;2.35;;
62102;SDS011;48077;48.104;11.702;2022-09-06T11:06:54;5.68;;;2.80;;
62102;SDS011;48077;48.104;11.702;2022-09-06T11:12:01;5.10;;;2.33;;
62102;SDS011;48077;48.104;11.702;2022-09-06T11:14:37;12.75;;;3.63;;
62102;SDS011;48077;48.104;11.702;2022-09-06T11:17:12;4.15;;;2.28;;
62102;SDS011;48077;48.104;11.702;2022-09-06T11:22:16;4.60;;;2.50;;
62102;SDS011;48077;48.104;11.702;2022-09-06T11:25:15;6.47;;;2.75;;
62102;SDS011;48077;48.104;11.702;2022-09-06T11:27:59;6.07;;;3.28;;
62102;SDS011;48077;48.104;11.702;2022-09-06T11:30:25;8.40;;;2.72;;
62102;SDS011;48077;48.104;11.702;2022-09-06T11:33:02;4.43;;;2.30;;
62102;SDS011;48077;48.104;11.702;2022-09-06T11:35:48;6.10;;;2.28;;
62102;SDS011;48077;48.104;11.702;2022-09-06T11:40:39;8.00;;;2.67;;
62102;SDS011;48077;48.104;11.702;2022-09-06T11:43:10;6.35;;;2.75;;
62102;SDS011;48077;48.104;11.702;2022-09-06T11:45:49;5.78;;;3.05;;
62102;SDS011;48077;48.104;11.702;2022-09-06T11:53:22;4.03;;;2.35;;
62102;SDS011;48077;48.104;11.702;2022-09-06T11:55:49;6.75;;;2.55;;
62102;SDS011;48077;48.104;11.702;2022-09-06T12:00:39;6.63;;;2.75;;
62102;SDS011;48077;48.104;11.702;2022-09-06T12:03:05;4.63;;;2.63;;
62102;SDS011;48077;48.104;11.702;2022-09-06T12:05:30;4.70;;;2.78;;
62102;SDS011;48077;48.104;11.702;2022-09-06T12:13:37;6.15;;;2.88;;
62102;SDS011;48077;48.104;11.702;2022-09-06T12:16:03;4.53;;;2.65;;
62102;SDS011;48077;48.104;11.702;2022-09-06T12:21:04;8.10;;;3.58;;
62102;SDS011;48077;48.104;11.702;2022-09-06T12:25:57;10.95;;;3.65;;
62102;SDS011;48077;48.104;11.702;2022-09-06T12:28:24;6.95;;;2.90;;
62102;SDS011;48077;48.104;11.702;2022-09-06T12:30:53;6.88;;;2.67;;
62102;SDS011;48077;48.104;11.702;2022-09-06T12:33:21;8.05;;;3.17;;
62102;SDS011;48077;48.104;11.702;2022-09-06T12:35:49;8.60;;;2.90;;
62102;SDS011;48077;48.104;11.702;2022-09-06T12:38:13;8.73;;;2.85;;
62102;SDS011;48077;48.104;11.702;2022-09-06T12:40:39;7.13;;;3.38;;
62102;SDS011;48077;48.104;11.702;2022-09-06T12:43:08;7.25;;;3.22;;
62102;SDS011;48077;48.104;11.702;2022-09-06T12:45:34;7.80;;;3.05;;
62102;SDS011;48077;48.104;11.702;2022-09-06T12:48:05;7.95;;;3.00;;
62102;SDS011;48077;48.104;11.702;2022-09-06T12:50:30;8.00;;;3.63;;
62102;SDS011;48077;48.104;11.702;2022-09-06T12:52:54;8.35;;;3.38;;
62102;SDS011;48077;48.104;11.702;2022-09-06T12:57:50;4.53;;;2.42;;
62102;SDS011;48077;48.104;11.702;2022-09-06T13:00:16;7.65;;;3.05;;
62102;SDS011;48077;48.104;11.702;2022-09-06T13:02:43;6.13;;;2.90;;
62102;SDS011;48077;48.104;11.702;2022-09-06T13:05:18;7.03;;;2.97;;
62102;SDS011;48077;48.104;11.702;2022-09-06T13:07:44;9.00;;;2.97;;
62102;SDS011;48077;48.104;11.702;2022-09-06T13:10:09;6.80;;;2.90;;
62102;SDS011;48077;48.104;11.702;2022-09-06T13:12:38;11.13;;;3.55;;
62102;SDS011;48077;48.104;11.702;2022-09-06T13:15:37;10.23;;;3.20;;
62102;SDS011;48077;48.104;11.702;2022-09-06T13:17:55;6.82;;;3.25;;
62102;SDS011;48077;48.104;11.702;2022-09-06T13:20:41;7.90;;;3.85;;
62102;SDS011;48077;48.104;11.702;2022-09-06T13:23:10;6.43;;;3.03;;
62102;SDS011;48077;48.104;11.702;2022-09-06T13:25:45;8.00;;;3.05;;
62102;SDS011;48077;48.104;11.702;2022-09-06T13:28:11;9.13;;;3.40;;
62102;SDS011;48077;48.104;11.702;2022-09-06T13:31:11;10.77;;;3.38;;
62102;SDS011;48077;48.104;11.702;2022-09-06T13:33:41;7.93;;;3.22;;
62102;SDS011;48077;48.104;11.702;2022-09-06T13:41:00;11.20;;;4.00;;
62102;SDS011;48077;48.104;11.702;2022-09-06T13:43:27;13.73;;;3.63;;
62102;SDS011;48077;48.104;11.702;2022-09-06T13:46:06;18.05;;;4.35;;
62102;SDS011;48077;48.104;11.702;2022-09-06T13:48:32;11.18;;;3.63;;
62102;SDS011;48077;48.104;11.702;2022-09-06T13:50:55;11.02;;;4.30;;
62102;SDS011;48077;48.104;11.702;2022-09-06T13:53:19;9.07;;;3.38;;
62102;SDS011;48077;48.104;11.702;2022-09-06T13:55:42;9.85;;;3.03;;
62102;SDS011;48077;48.104;11.702;2022-09-06T13:58:05;7.10;;;2.80;;
62102;SDS011;48077;48.104;11.702;2022-09-06T14:00:29;7.72;;;2.78;;
62102;SDS011;48077;48.104;11.702;2022-09-06T14:02:53;5.85;;;3.55;;
62102;SDS011;48077;48.104;11.702;2022-09-06T14:05:17;7.43;;;2.78;;
62102;SDS011;48077;48.104;11.702;2022-09-06T14:07:40;9.18;;;2.28;;
62102;SDS011;48077;48.104;11.702;2022-09-06T14:10:04;6.35;;;2.40;;
62102;SDS011;48077;48.104;11.702;2022-09-06T14:12:28;9.10;;;3.22;;
62102;SDS011;48077;48.104;11.702;2022-09-06T14:14:51;7.15;;;2.65;;
62102;SDS011;48077;48.104;11.702;2022-09-06T14:17:15;5.55;;;3.00;;
62102;SDS011;48077;48.104;11.702;2022-09-06T14:19:38;9.73;;;2.78;;
62102;SDS011;48077;48.104;11.702;2022-09-06T14:22:03;8.10;;;3.00;;
62102;SDS011;48077;48.104;11.702;2022-09-06T14:24:28;7.07;;;3.10;;
62102;SDS011;48077;48.104;11.702;2022-09-06T14:26:52;9.07;;;3.40;;
62102;SDS011;48077;48.104;11.702;2022-09-06T14:29:15;8.95;;;3.67;;
62102;SDS011;48077;48.104;11.702;2022-09-06T14:31:39;8.88;;;3.60;;
62102;SDS011;48077;48.104;11.702;2022-09-06T14:34:02;7.18;;;3.25;;
62102;SDS011;48077;48.104;11.702;2022-09-06T14:36:26;5.30;;;3.00;;
62102;SDS011;48077;48.104;11.702;2022-09-06T14:38:52;7.47;;;2.90;;
62102;SDS011;48077;48.104;11.702;2022-09-06T14:41:16;9.13;;;3.10;;
62102;SDS011;48077;48.104;11.702;2022-09-06T14:43:41;9.25;;;2.83;;
62102;SDS011;48077;48.104;11.702;2022-09-06T14:46:09;6.28;;;2.80;;
62102;SDS011;48077;48.104;11.702;2022-09-06T14:48:34;7.22;;;2.90;;
62102;SDS011;48077;48.104;11.702;2022-09-06T14:51:05;5.75;;;2.33;;
62102;SDS011;48077;48.104;11.702;2022-09-06T14:53:31;6.18;;;2.53;;
62102;SDS011;48077;48.104;11.702;2022-09-06T14:55:59;9.52;;;2.92;;
62102;SDS011;48077;48.104;11.702;2022-09-06T14:58:23;5.93;;;3.33;;
62102;SDS011;48077;48.104;11.702;2022-09-06T15:00:46;9.65;;;3.45;;
62102;SDS011;48077;48.104;11.702;2022-09-06T15:03:12;10.27;;;2.88;;
62102;SDS011;48077;48.104;11.702;2022-09-06T15:05:35;5.70;;;3.38;;
62102;SDS011;48077;48.104;11.702;2022-09-06T15:07:58;7.07;;;3.35;;
62102;SDS011;48077;48.104;11.702;2022-09-06T15:10:22;10.20;;;3.67;;
62102;SDS011;48077;48.104;11.702;2022-09-06T15:12:45;9.10;;;3.42;;
62102;SDS011;48077;48.104;11.702;2022-09-06T15:15:09;7.70;;;3.17;;
62102;SDS011;48077;48.104;11.702;2022-09-06T15:17:32;5.68;;;3.15;;
62102;SDS011;48077;48.104;11.702;2022-09-06T15:19:57;9.02;;;3.15;;
62102;SDS011;48077;48.104;11.702;2022-09-06T15:22:20;6.43;;;3.38;;
62102;SDS011;48077;48.104;11.702;2022-09-06T15:24:44;5.90;;;2.90;;
62102;SDS011;48077;48.104;11.702;2022-09-06T15:27:07;5.03;;;2.65;;
62102;SDS011;48077;48.104;11.702;2022-09-06T15:29:31;8.55;;;3.03;;
62102;SDS011;48077;48.104;11.702;2022-09-06T15:31:54;7.65;;;2.92;;
62102;SDS011;48077;48.104;11.702;2022-09-06T15:34:21;11.80;;;3.97;;
62102;SDS011;48077;48.104;11.702;2022-09-06T15:36:46;8.23;;;3.33;;
62102;SDS011;48077;48.104;11.702;2022-09-06T15:39:10;7.57;;;2.97;;
62102;SDS011;48077;48.104;11.702;2022-09-06T15:41:34;10.05;;;3.35;;
62102;SDS011;48077;48.104;11.702;2022-09-06T15:44:02;6.28;;;3.15;;
62102;SDS011;48077;48.104;11.702;2022-09-06T15:49:01;7.97;;;3.38;;
62102;SDS011;48077;48.104;11.702;2022-09-06T15:51:28;10.90;;;3.40;;
62102;SDS011;48077;48.104;11.702;2022-09-06T15:53:52;7.82;;;3.90;;
62102;SDS011;48077;48.104;11.702;2022-09-06T15:56:16;11.50;;;4.80;;
62102;SDS011;48077;48.104;11.702;2022-09-06T15:58:40;5.47;;;3.55;;
62102;SDS011;48077;48.104;11.702;2022-09-06T16:01:05;5.57;;;3.35;;
62102;SDS011;48077;48.104;11.702;2022-09-06T16:03:30;6.97;;;3.17;;
62102;SDS011;48077;48.104;11.702;2022-09-06T16:05:59;6.78;;;3.60;;